Time;durP1;ratioP1;P1;durP2;ratioP2;P2;SDS_P1;SDS_P2;PMS_P1;PMS_P2;Temp;Humidity;BMP_temperature;BMP_pressure;BME280_temperature;BME280_humidity;BME280_pressure;Samples;Min_cycle;Max_cycle;Signal;HPM_P1;HPM_P2
2022/11/20 00:02:25;;;;;;;21.00;8.30;;;0.70;99.90;;;;;;5090203;28;20421;-71
2022/11/20 00:04:50;;;;;;;22.95;7.80;;;0.70;99.90;;;;;;5079429;28;20448;-71
2022/11/20 00:07:16;;;;;;;20.73;8.18;;;0.60;99.90;;;;;;5089861;28;20016;-71
2022/11/20 00:09:42;;;;;;;21.75;8.60;;;0.60;99.90;;;;;;5086002;28;20028;-70
2022/11/20 00:12:07;;;;;;;22.88;8.32;;;0.60;99.90;;;;;;5090236;28;20055;-71
2022/11/20 00:14:35;;;;;;;20.42;8.95;;;0.50;99.90;;;;;;5094661;28;20070;-72
2022/11/20 00:17:00;;;;;;;19.55;8.18;;;0.50;99.90;;;;;;5092358;28;20031;-71
2022/11/20 00:19:26;;;;;;;18.42;7.35;;;0.50;99.90;;;;;;5109807;28;20013;-73
2022/11/20 00:21:53;;;;;;;20.27;7.40;;;0.50;99.90;;;;;;5088552;28;20031;-71
2022/11/20 00:24:19;;;;;;;19.02;7.43;;;0.50;99.90;;;;;;5092761;28;20024;-75
2022/11/20 00:26:44;;;;;;;19.90;8.43;;;0.50;99.90;;;;;;5088476;28;20031;-71
2022/11/20 00:29:10;;;;;;;23.38;8.63;;;0.50;99.90;;;;;;5083083;28;20051;-74
2022/11/20 00:31:37;;;;;;;19.15;7.95;;;0.50;99.90;;;;;;5086052;28;20068;-72
2022/11/20 00:34:03;;;;;;;20.27;8.15;;;0.50;99.90;;;;;;5077672;28;20032;-71
2022/11/20 00:36:32;;;;;;;16.85;6.93;;;0.50;99.90;;;;;;5094076;28;20360;-71
2022/11/20 00:38:59;;;;;;;20.45;8.50;;;0.50;99.90;;;;;;5092553;28;20148;-71
2022/11/20 00:41:25;;;;;;;18.98;7.38;;;0.50;99.90;;;;;;5085958;28;20063;-74
2022/11/20 00:43:52;;;;;;;19.02;7.43;;;0.40;99.90;;;;;;5093937;28;20020;-70
2022/11/20 00:46:20;;;;;;;17.33;7.95;;;0.40;99.90;;;;;;5084900;28;20249;-71
2022/11/20 00:48:46;;;;;;;20.33;9.05;;;0.40;99.90;;;;;;5085590;28;20407;-73
2022/11/20 00:51:14;;;;;;;22.15;9.10;;;0.40;99.90;;;;;;5086211;28;20363;-71
2022/11/20 00:53:40;;;;;;;19.02;8.40;;;0.40;99.90;;;;;;5088392;28;20032;-73
2022/11/20 00:56:09;;;;;;;20.35;7.78;;;0.40;99.90;;;;;;5092931;28;20028;-73
2022/11/20 00:58:37;;;;;;;21.85;8.02;;;0.40;99.90;;;;;;5087085;28;20399;-72
2022/11/20 01:01:14;;;;;;;20.65;8.10;;;0.40;99.90;;;;;;5091932;28;20122;-74
2022/11/20 01:03:42;;;;;;;19.52;8.45;;;0.40;99.90;;;;;;5083720;28;20033;-75
2022/11/20 01:06:15;;;;;;;21.13;7.90;;;0.40;99.90;;;;;;5087152;28;20028;-71
2022/11/20 01:08:42;;;;;;;19.52;7.38;;;0.30;99.90;;;;;;5083676;28;20039;-71
2022/11/20 01:11:11;;;;;;;19.45;7.40;;;0.30;99.90;;;;;;5081524;28;20472;-71
2022/11/20 01:13:37;;;;;;;22.85;8.80;;;0.30;99.90;;;;;;5089281;28;20055;-71
2022/11/20 01:16:07;;;;;;;17.98;7.68;;;0.30;99.90;;;;;;5087053;28;20028;-71
2022/11/20 01:18:33;;;;;;;22.85;9.13;;;0.30;99.90;;;;;;5097933;28;20169;-72
2022/11/20 01:21:07;;;;;;;22.30;8.52;;;0.30;99.90;;;;;;5080699;28;20477;-73
2022/11/20 01:23:34;;;;;;;19.92;8.07;;;0.30;99.90;;;;;;5081581;28;20020;-74
2022/11/20 01:26:05;;;;;;;23.17;8.77;;;0.30;99.90;;;;;;5080456;28;20352;-75
2022/11/20 01:28:31;;;;;;;19.52;8.00;;;0.20;99.90;;;;;;5089836;28;20055;-74
2022/11/20 01:30:57;;;;;;;21.30;9.43;;;0.20;99.90;;;;;;5088052;28;20044;-74
2022/11/20 01:33:23;;;;;;;21.98;9.02;;;0.20;99.90;;;;;;5089808;28;20030;-69
2022/11/20 01:35:49;;;;;;;18.00;7.35;;;0.20;99.90;;;;;;5092623;28;20062;-75
2022/11/20 01:38:17;;;;;;;20.50;8.63;;;0.20;99.90;;;;;;5093650;28;20016;-71
2022/11/20 01:40:43;;;;;;;20.30;8.57;;;0.20;99.90;;;;;;5093843;28;20039;-72
2022/11/20 01:43:20;;;;;;;21.52;8.48;;;0.20;99.90;;;;;;5093280;28;20112;-76
2022/11/20 01:46:18;;;;;;;21.13;8.32;;;0.20;99.90;;;;;;5092733;28;20397;-70
2022/11/20 01:49:07;;;;;;;21.95;8.57;;;0.10;99.90;;;;;;5093053;28;20036;-69
2022/11/20 01:51:35;;;;;;;22.95;9.18;;;0.10;99.90;;;;;;5092255;28;20035;-76
2022/11/20 01:54:04;;;;;;;21.38;9.88;;;0.10;99.90;;;;;;5093383;28;20065;-73
2022/11/20 01:56:33;;;;;;;21.90;8.95;;;0.10;99.90;;;;;;5093502;28;20028;-72
2022/11/20 01:59:03;;;;;;;21.02;9.07;;;0.10;99.90;;;;;;5091731;28;20371;-73
2022/11/20 02:01:30;;;;;;;24.13;9.25;;;0.10;99.90;;;;;;5101557;28;20110;-72
2022/11/20 02:03:56;;;;;;;21.30;8.98;;;0.10;99.90;;;;;;5113660;28;20051;-70
2022/11/20 02:06:24;;;;;;;21.45;9.23;;;0.10;99.90;;;;;;5110155;28;20059;-74
2022/11/20 02:08:52;;;;;;;21.65;9.82;;;0.10;99.90;;;;;;5113824;28;20062;-73
2022/11/20 02:11:18;;;;;;;21.63;8.73;;;0.10;99.90;;;;;;5093528;28;20085;-71
2022/11/20 02:13:44;;;;;;;21.73;8.52;;;0.10;99.90;;;;;;5092704;28;20012;-73
2022/11/20 02:16:31;;;;;;;21.25;9.85;;;0.00;99.90;;;;;;5093099;28;20020;-71
2022/11/20 02:19:00;;;;;;;21.90;9.48;;;0.00;99.90;;;;;;5072842;28;20029;-72
2022/11/20 02:21:34;;;;;;;21.88;8.70;;;0.10;99.90;;;;;;5109156;28;20110;-73
2022/11/20 02:24:09;;;;;;;21.17;8.75;;;0.10;99.90;;;;;;5092915;28;20440;-73
2022/11/20 02:26:44;;;;;;;23.23;9.63;;;0.10;99.90;;;;;;5093433;28;20020;-72
2022/11/20 02:29:09;;;;;;;22.13;8.90;;;0.10;99.90;;;;;;5097469;28;20036;-74
2022/11/20 02:31:42;;;;;;;21.35;9.57;;;0.10;99.90;;;;;;5106734;28;20114;-71
2022/11/20 02:34:08;;;;;;;23.27;9.15;;;0.10;99.90;;;;;;5106734;28;20541;-71
2022/11/20 02:36:35;;;;;;;23.65;9.77;;;0.10;99.90;;;;;;5096463;28;20044;-71
2022/11/20 02:39:02;;;;;;;24.10;9.65;;;0.10;99.90;;;;;;5116806;28;20020;-70
2022/11/20 02:41:46;;;;;;;21.40;9.20;;;0.00;99.90;;;;;;5117473;28;20058;-70
2022/11/20 02:44:12;;;;;;;21.25;8.73;;;0.00;99.90;;;;;;5109675;28;20154;-74
2022/11/20 02:46:38;;;;;;;24.15;9.85;;;0.00;99.90;;;;;;5096822;28;20044;-73
2022/11/20 02:49:05;;;;;;;22.95;9.48;;;0.00;99.90;;;;;;5095282;28;20035;-69
2022/11/20 02:51:31;;;;;;;21.58;8.93;;;0.00;99.90;;;;;;5096464;28;20127;-72
2022/11/20 02:53:57;;;;;;;21.42;9.27;;;0.00;99.90;;;;;;5105398;28;20035;-72
2022/11/20 02:56:23;;;;;;;21.48;9.07;;;0.00;99.90;;;;;;5115707;28;20020;-72
2022/11/20 02:58:48;;;;;;;20.27;9.15;;;0.00;99.90;;;;;;5114651;28;20397;-72
2022/11/20 03:01:16;;;;;;;22.25;9.30;;;0.00;99.90;;;;;;5106564;28;20024;-71
2022/11/20 03:03:42;;;;;;;23.60;9.77;;;-0.10;99.90;;;;;;5095716;28;20035;-71
2022/11/20 03:06:10;;;;;;;23.63;10.05;;;0.00;99.90;;;;;;5095694;28;20039;-73
2022/11/20 03:08:35;;;;;;;23.35;9.82;;;-0.10;99.90;;;;;;5103427;28;20029;-72
2022/11/20 03:11:06;;;;;;;22.13;9.13;;;-0.10;99.90;;;;;;5110849;28;20046;-73
2022/11/20 03:13:32;;;;;;;23.08;9.10;;;-0.10;99.90;;;;;;5085355;28;20452;-73
2022/11/20 03:15:58;;;;;;;23.38;10.13;;;-0.10;99.90;;;;;;5095200;28;20472;-72
2022/11/20 03:18:23;;;;;;;20.08;9.18;;;-0.20;99.90;;;;;;5094453;28;20042;-71
2022/11/20 03:20:49;;;;;;;23.83;9.27;;;-0.20;99.90;;;;;;5095953;28;20483;-69
2022/11/20 03:23:15;;;;;;;23.38;9.90;;;-0.20;99.90;;;;;;5096162;28;20020;-70
2022/11/20 03:25:40;;;;;;;24.55;11.02;;;-0.20;99.90;;;;;;5096192;28;20020;-72
2022/11/20 03:28:06;;;;;;;24.52;10.05;;;-0.20;99.90;;;;;;5096162;28;20099;-71
2022/11/20 03:30:31;;;;;;;20.70;8.60;;;-0.20;99.90;;;;;;5095083;28;20035;-71
2022/11/20 03:32:57;;;;;;;22.55;9.88;;;-0.20;99.90;;;;;;5100564;28;20051;-72
2022/11/20 03:35:22;;;;;;;23.17;9.23;;;-0.20;99.90;;;;;;5095549;28;20020;-69
2022/11/20 03:37:48;;;;;;;24.33;10.25;;;-0.20;99.90;;;;;;5095176;28;20473;-70
2022/11/20 03:40:14;;;;;;;27.00;11.07;;;-0.20;99.90;;;;;;5107916;28;20027;-71
2022/11/20 03:42:45;;;;;;;23.98;9.80;;;-0.20;99.90;;;;;;5112002;28;20079;-70
2022/11/20 03:45:17;;;;;;;22.33;9.73;;;-0.20;99.90;;;;;;5095420;28;20467;-68
2022/11/20 03:47:44;;;;;;;19.02;8.55;;;-0.20;99.90;;;;;;5095855;28;20035;-70
2022/11/20 03:50:12;;;;;;;22.95;9.82;;;-0.10;99.90;;;;;;5095349;28;20046;-70
2022/11/20 03:52:38;;;;;;;23.35;10.07;;;-0.10;99.90;;;;;;5094800;28;20106;-71
2022/11/20 03:55:04;;;;;;;24.42;10.52;;;-0.10;99.90;;;;;;5095317;28;20021;-71
2022/11/20 03:57:30;;;;;;;25.33;9.82;;;-0.10;99.90;;;;;;5094837;28;20039;-69
2022/11/20 03:59:56;;;;;;;22.00;10.00;;;-0.10;99.90;;;;;;5095892;28;20020;-69
2022/11/20 04:02:22;;;;;;;23.77;11.23;;;-0.10;99.90;;;;;;5106412;28;20015;-70
2022/11/20 04:04:47;;;;;;;24.08;10.25;;;-0.10;99.90;;;;;;5115778;28;20142;-69
2022/11/20 04:07:13;;;;;;;24.13;10.07;;;-0.10;99.90;;;;;;5114559;28;20020;-69
2022/11/20 04:09:38;;;;;;;27.17;11.48;;;-0.10;99.90;;;;;;5103981;28;20114;-70
2022/11/20 04:12:04;;;;;;;25.35;10.20;;;-0.10;99.90;;;;;;5095064;28;20032;-69
2022/11/20 04:14:32;;;;;;;22.70;10.18;;;-0.20;99.90;;;;;;5093437;28;20024;-69
2022/11/20 04:16:57;;;;;;;26.70;10.70;;;-0.20;99.90;;;;;;5093993;28;20422;-70
2022/11/20 04:19:23;;;;;;;32.42;14.02;;;-0.20;99.90;;;;;;5095620;28;20028;-69
2022/11/20 04:21:48;;;;;;;28.27;12.48;;;-0.20;99.90;;;;;;5095054;28;20056;-70
2022/11/20 04:24:14;;;;;;;24.77;10.40;;;-0.20;99.90;;;;;;5093284;28;20039;-69
2022/11/20 04:26:40;;;;;;;23.45;9.77;;;-0.30;99.90;;;;;;5094427;28;20020;-70
2022/11/20 04:29:05;;;;;;;24.95;9.70;;;-0.30;99.90;;;;;;5094731;28;20020;-69
2022/11/20 04:31:33;;;;;;;24.52;10.20;;;-0.30;99.90;;;;;;5100951;28;20044;-68
2022/11/20 04:34:03;;;;;;;24.63;10.98;;;-0.30;99.90;;;;;;5108323;28;20032;-68
2022/11/20 04:36:30;;;;;;;24.08;11.18;;;-0.20;99.90;;;;;;5093743;28;20034;-68
2022/11/20 04:38:57;;;;;;;25.85;11.43;;;-0.20;99.90;;;;;;5095014;28;20020;-68
2022/11/20 04:41:25;;;;;;;22.67;9.77;;;-0.20;99.90;;;;;;5094765;28;20023;-69
2022/11/20 04:43:58;;;;;;;23.80;10.10;;;-0.20;99.90;;;;;;5092516;28;20035;-68
2022/11/20 04:46:24;;;;;;;25.27;10.32;;;-0.20;99.90;;;;;;5094572;28;20048;-69
2022/11/20 04:48:50;;;;;;;25.98;11.23;;;-0.20;99.90;;;;;;5093360;28;20059;-69
2022/11/20 04:51:15;;;;;;;25.60;11.77;;;-0.30;99.90;;;;;;5093653;28;20421;-69
2022/11/20 04:53:41;;;;;;;25.58;11.38;;;-0.30;99.90;;;;;;5094286;28;20055;-69
2022/11/20 04:56:09;;;;;;;25.20;10.73;;;-0.30;99.90;;;;;;5094062;28;20039;-69
2022/11/20 04:58:35;;;;;;;25.98;11.50;;;-0.30;99.90;;;;;;5094135;28;20035;-70
2022/11/20 05:01:22;;;;;;;24.30;11.15;;;-0.30;99.90;;;;;;5094155;28;20028;-69
2022/11/20 05:03:47;;;;;;;26.52;11.45;;;-0.30;99.90;;;;;;5094131;28;20535;-68
2022/11/20 05:06:15;;;;;;;28.35;12.73;;;-0.30;99.90;;;;;;5094291;28;20161;-68
2022/11/20 05:08:40;;;;;;;25.02;11.13;;;-0.30;99.90;;;;;;5094357;28;20103;-69
2022/11/20 05:11:09;;;;;;;24.95;10.88;;;-0.30;99.90;;;;;;5093820;28;20122;-69
2022/11/20 05:13:35;;;;;;;21.73;9.23;;;-0.30;99.90;;;;;;5114340;28;20033;-69
2022/11/20 05:16:03;;;;;;;25.13;11.20;;;-0.30;99.90;;;;;;5099479;28;20034;-69
2022/11/20 05:18:28;;;;;;;26.45;12.20;;;-0.30;99.90;;;;;;5092056;28;20055;-69
2022/11/20 05:20:58;;;;;;;27.85;11.63;;;-0.30;99.90;;;;;;5094149;28;20070;-69
2022/11/20 05:23:24;;;;;;;23.80;9.95;;;-0.30;99.90;;;;;;5093524;28;20032;-68
2022/11/20 05:25:54;;;;;;;24.88;10.23;;;-0.40;99.90;;;;;;5093654;28;20024;-69
2022/11/20 05:28:20;;;;;;;26.00;11.18;;;-0.40;99.90;;;;;;5091642;28;20024;-69
2022/11/20 05:30:46;;;;;;;26.50;11.43;;;-0.40;99.90;;;;;;5096160;28;20227;-69
2022/11/20 05:33:11;;;;;;;27.23;10.75;;;-0.40;99.90;;;;;;5100051;28;20020;-69
2022/11/20 05:35:37;;;;;;;23.92;10.35;;;-0.40;99.90;;;;;;5093007;28;20383;-68
2022/11/20 05:38:03;;;;;;;24.23;10.65;;;-0.40;99.90;;;;;;5093691;28;20026;-69
2022/11/20 05:40:28;;;;;;;22.83;10.45;;;-0.40;99.90;;;;;;5091849;28;20471;-69
2022/11/20 05:42:54;;;;;;;28.58;11.27;;;-0.40;99.90;;;;;;5093982;28;20111;-68
2022/11/20 05:45:19;;;;;;;22.95;10.02;;;-0.40;99.90;;;;;;5112709;28;20023;-68
2022/11/20 05:47:45;;;;;;;26.73;11.25;;;-0.50;99.90;;;;;;5113631;28;20016;-69
2022/11/20 05:50:10;;;;;;;23.92;10.85;;;-0.40;99.90;;;;;;5112540;28;20035;-69
2022/11/20 05:52:36;;;;;;;24.27;10.80;;;-0.40;99.90;;;;;;5088900;28;20016;-68
2022/11/20 05:55:01;;;;;;;23.73;10.73;;;-0.40;99.90;;;;;;5093352;28;20019;-69
2022/11/20 05:57:27;;;;;;;24.23;10.90;;;-0.30;99.90;;;;;;5093102;28;20020;-70
2022/11/20 05:59:53;;;;;;;23.25;10.98;;;-0.30;99.90;;;;;;5093445;28;20406;-69
2022/11/20 06:02:18;;;;;;;24.83;10.75;;;-0.20;99.90;;;;;;5105770;28;20045;-69
2022/11/20 06:04:44;;;;;;;28.55;12.45;;;-0.20;99.90;;;;;;5072963;28;20044;-68
2022/11/20 06:07:10;;;;;;;22.83;10.05;;;-0.20;99.90;;;;;;5072540;28;20020;-68
2022/11/20 06:09:35;;;;;;;24.13;10.07;;;-0.10;99.90;;;;;;5091935;28;20020;-68
2022/11/20 06:12:01;;;;;;;23.23;9.48;;;-0.10;99.90;;;;;;5093441;28;20020;-68
2022/11/20 06:14:26;;;;;;;21.85;10.25;;;-0.10;99.90;;;;;;5092129;28;20042;-68
2022/11/20 06:16:52;;;;;;;25.73;11.05;;;-0.10;99.90;;;;;;5093440;28;20024;-68
2022/11/20 06:19:17;;;;;;;24.95;11.07;;;-0.10;99.90;;;;;;5093318;28;20020;-68
2022/11/20 06:21:43;;;;;;;28.48;11.52;;;-0.10;99.90;;;;;;5092754;28;20099;-68
2022/11/20 06:24:12;;;;;;;25.15;11.02;;;-0.10;99.90;;;;;;5093330;28;20058;-68
2022/11/20 06:26:37;;;;;;;25.65;11.10;;;-0.10;99.90;;;;;;5092231;28;20356;-68
2022/11/20 06:29:03;;;;;;;27.92;9.90;;;-0.10;99.90;;;;;;5093136;28;20020;-68
2022/11/20 06:31:28;;;;;;;23.88;10.43;;;0.00;99.90;;;;;;5099221;28;20039;-67
2022/11/20 06:33:54;;;;;;;29.88;11.98;;;0.00;99.90;;;;;;5111030;28;20030;-68
2022/11/20 06:36:22;;;;;;;26.38;11.60;;;0.00;99.90;;;;;;5092242;28;20024;-69
2022/11/20 06:38:48;;;;;;;32.85;12.73;;;0.00;99.90;;;;;;5092846;28;20020;-68
2022/11/20 06:41:16;;;;;;;26.30;11.82;;;0.00;99.90;;;;;;5093526;28;20020;-69
2022/11/20 06:43:42;;;;;;;26.42;11.18;;;0.00;99.90;;;;;;5094589;28;20714;-68
2022/11/20 06:46:10;;;;;;;25.98;11.80;;;0.10;99.90;;;;;;5113488;28;20107;-68
2022/11/20 06:48:36;;;;;;;25.65;11.52;;;0.00;99.90;;;;;;5112666;28;20437;-69
2022/11/20 06:51:06;;;;;;;59.65;12.52;;;0.00;99.90;;;;;;5108274;28;20111;-69
2022/11/20 06:53:32;;;;;;;26.92;11.82;;;0.10;99.90;;;;;;5091798;28;20452;-68
2022/11/20 06:55:59;;;;;;;23.40;11.25;;;0.00;99.90;;;;;;5092571;28;20046;-69
2022/11/20 06:58:30;;;;;;;29.05;11.65;;;0.10;99.90;;;;;;5092072;28;20491;-69
2022/11/20 07:01:08;;;;;;;133.93;20.58;;;0.00;99.90;;;;;;5092671;28;20062;-69
2022/11/20 07:03:34;;;;;;;26.30;11.52;;;0.10;99.90;;;;;;5090087;28;20091;-69
2022/11/20 07:06:01;;;;;;;24.75;11.45;;;0.10;99.90;;;;;;5089962;28;20475;-69
2022/11/20 07:08:27;;;;;;;24.85;11.10;;;0.10;99.90;;;;;;5091505;28;20029;-69
2022/11/20 07:10:56;;;;;;;26.88;12.60;;;0.10;99.90;;;;;;5091466;28;20050;-69
2022/11/20 07:13:22;;;;;;;27.20;11.18;;;0.20;99.90;;;;;;5092418;28;20024;-70
2022/11/20 07:15:47;;;;;;;28.55;12.30;;;0.20;99.90;;;;;;5093903;28;20039;-69
2022/11/20 07:18:13;;;;;;;24.67;10.75;;;0.30;99.90;;;;;;5093186;28;20016;-69
2022/11/20 07:20:38;;;;;;;27.05;13.13;;;0.20;99.90;;;;;;5094596;28;20031;-69
2022/11/20 07:23:04;;;;;;;27.95;12.13;;;0.30;99.90;;;;;;5094879;28;20020;-69
2022/11/20 07:25:30;;;;;;;26.85;12.98;;;0.30;99.90;;;;;;5094975;28;20020;-70
2022/11/20 07:27:59;;;;;;;26.10;12.45;;;0.40;99.90;;;;;;5094971;28;20016;-68
2022/11/20 07:30:27;;;;;;;27.05;12.40;;;0.40;99.90;;;;;;5091868;28;20035;-68
2022/11/20 07:32:55;;;;;;;28.95;11.93;;;0.50;99.90;;;;;;5091392;28;20185;-69
2022/11/20 07:35:21;;;;;;;25.95;11.98;;;0.50;99.90;;;;;;5094581;28;20020;-70
2022/11/20 07:37:48;;;;;;;27.25;12.18;;;0.50;99.90;;;;;;5094573;28;20032;-68
2022/11/20 07:40:14;;;;;;;27.90;12.48;;;0.50;99.90;;;;;;5094526;28;20044;-69
2022/11/20 07:42:48;;;;;;;26.73;12.13;;;0.60;99.90;;;;;;5094071;28;20458;-70
2022/11/20 07:45:14;;;;;;;27.38;12.70;;;0.60;99.90;;;;;;5093398;28;20062;-69
2022/11/20 07:47:39;;;;;;;35.33;13.18;;;0.70;99.90;;;;;;5093492;28;20387;-69
2022/11/20 07:50:05;;;;;;;25.25;11.65;;;0.70;99.90;;;;;;5094211;28;20104;-69
2022/11/20 07:52:31;;;;;;;26.02;12.90;;;0.80;99.90;;;;;;5090937;28;20060;-69
2022/11/20 07:54:56;;;;;;;27.15;12.95;;;0.90;99.90;;;;;;5094072;28;20387;-69
2022/11/20 07:57:22;;;;;;;31.98;12.80;;;0.90;99.90;;;;;;5094518;28;20024;-69
2022/11/20 07:59:47;;;;;;;28.02;12.02;;;0.90;99.90;;;;;;5094331;28;20030;-69
2022/11/20 08:02:13;;;;;;;28.23;12.35;;;0.90;99.90;;;;;;5096391;28;20031;-69
2022/11/20 08:04:38;;;;;;;27.10;13.00;;;1.00;99.90;;;;;;5091429;28;20083;-69
2022/11/20 08:07:04;;;;;;;30.33;13.38;;;1.00;99.90;;;;;;5094612;28;20034;-69
2022/11/20 08:09:30;;;;;;;26.90;12.57;;;1.00;99.90;;;;;;5093043;28;20058;-69
2022/11/20 08:14:39;;;;;;;27.58;12.82;;;1.10;99.90;;;;;;5091163;28;20455;-69
2022/11/20 08:17:05;;;;;;;23.92;11.80;;;1.20;99.90;;;;;;5095809;28;20103;-68
2022/11/20 08:19:30;;;;;;;23.38;11.80;;;1.20;99.90;;;;;;5094001;28;20452;-69
2022/11/20 08:21:56;;;;;;;27.58;11.80;;;1.30;99.90;;;;;;5093619;28;20478;-69
2022/11/20 08:24:21;;;;;;;24.17;11.93;;;1.30;99.90;;;;;;5092802;28;20041;-70
2022/11/20 08:26:47;;;;;;;24.15;12.10;;;1.30;99.90;;;;;;5093460;28;20103;-70
2022/11/20 08:29:12;;;;;;;27.98;12.27;;;1.30;99.90;;;;;;5093862;28;20020;-69
2022/11/20 08:31:38;;;;;;;29.13;13.02;;;1.30;99.90;;;;;;5091964;28;20040;-69
2022/11/20 08:34:03;;;;;;;27.80;12.00;;;1.40;99.90;;;;;;5093403;28;20454;-69
2022/11/20 08:36:33;;;;;;;27.55;12.10;;;1.40;99.90;;;;;;5093455;28;20028;-69
2022/11/20 08:38:58;;;;;;;27.27;12.70;;;1.60;99.90;;;;;;5088522;28;20030;-69
2022/11/20 08:41:25;;;;;;;26.90;13.27;;;1.70;99.90;;;;;;5092921;28;20032;-69
2022/11/20 08:43:56;;;;;;;26.13;12.18;;;1.80;99.90;;;;;;5094148;28;20030;-70
2022/11/20 08:46:27;;;;;;;29.13;12.00;;;1.90;99.90;;;;;;5094269;28;20016;-69
2022/11/20 08:48:53;;;;;;;27.60;12.80;;;2.00;99.90;;;;;;5096240;28;20028;-70
2022/11/20 08:51:20;;;;;;;27.25;11.88;;;2.10;99.90;;;;;;5093140;28;20388;-70
2022/11/20 08:53:48;;;;;;;25.70;13.05;;;2.10;99.90;;;;;;5093959;28;20028;-70
2022/11/20 08:56:14;;;;;;;27.02;13.05;;;2.20;99.90;;;;;;5094025;28;20016;-70
2022/11/20 08:58:40;;;;;;;26.00;12.52;;;2.30;99.90;;;;;;5093839;28;20345;-70
2022/11/20 09:01:06;;;;;;;29.08;13.95;;;2.40;99.90;;;;;;5095065;28;20039;-71
2022/11/20 09:03:31;;;;;;;28.58;13.18;;;2.50;99.90;;;;;;5094570;28;20028;-71
2022/11/20 09:06:02;;;;;;;25.02;10.68;;;2.60;99.90;;;;;;5094241;28;20012;-71
2022/11/20 09:08:28;;;;;;;24.45;11.75;;;2.70;99.90;;;;;;5093014;28;20348;-70
2022/11/20 09:10:55;;;;;;;25.88;11.90;;;2.80;99.90;;;;;;5114481;28;20073;-71
2022/11/20 09:13:22;;;;;;;26.02;12.15;;;3.00;99.90;;;;;;5107674;28;20064;-71
2022/11/20 09:15:53;;;;;;;27.08;12.90;;;3.10;99.90;;;;;;5092010;28;20020;-71
2022/11/20 09:18:19;;;;;;;28.60;13.70;;;3.30;99.90;;;;;;5094345;28;20020;-71
2022/11/20 09:20:44;;;;;;;27.10;12.13;;;3.30;99.90;;;;;;5111241;28;20139;-71
2022/11/20 09:23:10;;;;;;;24.55;11.48;;;3.40;99.90;;;;;;5101507;28;20067;-71
2022/11/20 09:25:35;;;;;;;25.48;11.15;;;3.40;99.90;;;;;;5102213;28;20055;-72
2022/11/20 09:28:01;;;;;;;27.45;13.23;;;3.50;99.90;;;;;;5101395;28;20031;-71
2022/11/20 09:30:27;;;;;;;25.75;12.43;;;3.60;99.90;;;;;;5101377;28;20019;-72
2022/11/20 09:32:53;;;;;;;27.10;12.02;;;3.60;99.90;;;;;;5098558;28;20063;-72
2022/11/20 09:35:19;;;;;;;26.73;11.35;;;3.70;99.90;;;;;;5093097;28;20464;-72
2022/11/20 09:37:45;;;;;;;30.75;13.80;;;3.80;99.90;;;;;;5093085;28;20012;-72
2022/11/20 09:40:22;;;;;;;26.35;12.27;;;3.80;99.90;;;;;;5092372;28;20031;-73
2022/11/20 09:42:59;;;;;;;26.27;11.98;;;3.90;99.90;;;;;;5093881;28;20363;-72
2022/11/20 09:45:30;;;;;;;25.80;11.60;;;4.00;99.90;;;;;;5093299;28;20028;-72
2022/11/20 09:48:01;;;;;;;25.15;11.93;;;4.20;99.90;;;;;;5093476;28;20020;-71
2022/11/20 09:50:53;;;;;;;24.97;12.67;;;4.20;99.90;;;;;;5093628;28;20040;-72
2022/11/20 09:53:24;;;;;;;25.63;12.97;;;4.40;99.90;;;;;;5080838;28;20028;-73
2022/11/20 09:55:51;;;;;;;25.08;13.07;;;4.50;99.90;;;;;;5087741;28;20020;-73
2022/11/20 09:58:30;;;;;;;25.48;11.82;;;4.60;99.90;;;;;;5077325;28;20033;-73
2022/11/20 10:01:03;;;;;;;25.00;11.82;;;4.70;99.90;;;;;;5084825;28;20360;-73
2022/11/20 10:04:04;;;;;;;23.60;11.57;;;4.70;99.90;;;;;;5090955;28;20054;-75
2022/11/20 10:06:55;;;;;;;24.80;12.45;;;4.70;99.90;;;;;;5093062;28;20028;-73
2022/11/20 10:09:34;;;;;;;25.23;11.83;;;4.70;99.90;;;;;;5090968;28;20090;-72
2022/11/20 10:11:59;;;;;;;25.08;12.02;;;4.80;99.90;;;;;;5091429;28;20059;-73
2022/11/20 10:15:02;;;;;;;23.80;12.07;;;4.80;99.90;;;;;;5093200;28;20028;-71
2022/11/20 10:17:47;;;;;;;25.58;13.60;;;4.80;99.90;;;;;;5070674;28;20068;-74
2022/11/20 10:20:17;;;;;;;25.08;13.25;;;4.70;99.90;;;;;;5092481;28;20502;-72
2022/11/20 10:23:01;;;;;;;25.88;12.02;;;4.60;99.90;;;;;;5089896;28;20432;-72
2022/11/20 10:25:38;;;;;;;25.35;12.48;;;4.50;99.90;;;;;;5088944;28;20028;-72
2022/11/20 10:28:22;;;;;;;27.52;13.50;;;4.40;99.90;;;;;;5091843;28;20352;-71
2022/11/20 10:30:56;;;;;;;27.30;13.90;;;4.40;99.90;;;;;;5095924;28;20058;-72
2022/11/20 10:33:25;;;;;;;30.52;12.85;;;4.30;99.90;;;;;;5120379;27;20053;-73
2022/11/20 10:36:18;;;;;;;26.92;13.25;;;4.30;99.90;;;;;;5079353;28;20020;-74
2022/11/20 10:38:51;;;;;;;26.20;13.05;;;4.20;99.90;;;;;;5086282;28;20027;-71
2022/11/20 10:41:25;;;;;;;29.25;14.25;;;4.20;99.90;;;;;;5101680;28;20460;-73
2022/11/20 10:44:14;;;;;;;28.85;13.65;;;4.20;99.90;;;;;;5092808;28;20026;-72
2022/11/20 10:46:49;;;;;;;29.77;14.65;;;4.20;99.90;;;;;;5093371;28;20437;-72
2022/11/20 10:49:19;;;;;;;25.73;13.73;;;4.10;99.90;;;;;;5085991;28;20020;-72
2022/11/20 10:51:56;;;;;;;28.40;14.18;;;4.10;99.90;;;;;;5107503;27;20078;-70
2022/11/20 10:54:47;;;;;;;28.55;14.20;;;4.10;99.90;;;;;;5096801;28;20066;-72
2022/11/20 10:57:20;;;;;;;30.83;13.35;;;4.10;99.90;;;;;;5094080;28;20062;-70
2022/11/20 11:00:05;;;;;;;30.75;12.63;;;4.10;99.90;;;;;;5094216;28;20024;-71
2022/11/20 11:02:48;;;;;;;30.63;14.70;;;4.00;99.90;;;;;;5087724;28;20059;-71
2022/11/20 11:05:37;;;;;;;30.48;13.57;;;4.00;99.90;;;;;;5095763;28;20020;-71
2022/11/20 11:08:08;;;;;;;28.50;14.43;;;4.10;99.90;;;;;;5096498;28;20024;-72
2022/11/20 11:10:46;;;;;;;34.10;15.10;;;4.10;99.90;;;;;;5100638;27;20036;-70
2022/11/20 11:13:30;;;;;;;24.85;12.50;;;4.20;99.90;;;;;;5105855;28;20062;-71
2022/11/20 11:15:56;;;;;;;29.25;13.13;;;4.20;99.90;;;;;;5077030;28;20043;-71
2022/11/20 11:18:34;;;;;;;31.27;13.77;;;4.20;99.90;;;;;;5089685;28;20020;-71
2022/11/20 11:21:02;;;;;;;30.08;13.77;;;4.10;99.90;;;;;;5083701;28;20107;-70
2022/11/20 11:23:38;;;;;;;30.25;15.20;;;4.20;99.90;;;;;;5079885;28;20027;-71
2022/11/20 11:26:07;;;;;;;31.45;15.52;;;4.20;99.90;;;;;;5077677;28;20099;-70
2022/11/20 11:28:33;;;;;;;29.13;14.55;;;4.10;99.90;;;;;;5095533;28;20031;-71
2022/11/20 11:30:59;;;;;;;31.48;14.77;;;4.10;99.90;;;;;;5092131;28;20068;-73
2022/11/20 11:33:28;;;;;;;31.48;15.23;;;4.10;99.90;;;;;;5089060;28;20028;-71
2022/11/20 11:35:58;;;;;;;34.15;16.02;;;4.00;99.90;;;;;;5093771;28;20043;-71
2022/11/20 11:38:42;;;;;;;32.92;16.65;;;3.90;99.90;;;;;;5086270;28;20103;-71
2022/11/20 11:41:23;;;;;;;30.85;15.50;;;3.90;99.90;;;;;;5091294;28;20605;-70
2022/11/20 11:46:53;;;;;;;33.47;16.23;;;3.80;99.90;;;;;;5083630;28;20035;-69
2022/11/20 11:49:19;;;;;;;32.50;16.15;;;3.80;99.90;;;;;;5093078;28;20043;-70
2022/11/20 11:51:50;;;;;;;37.42;18.13;;;3.80;99.90;;;;;;5094123;28;20032;-69
2022/11/20 11:54:23;;;;;;;34.40;17.07;;;3.80;99.90;;;;;;5096043;28;20464;-70
2022/11/20 11:56:49;;;;;;;35.53;17.55;;;3.80;99.90;;;;;;5094426;28;20431;-70
2022/11/20 11:59:31;;;;;;;37.15;18.10;;;3.80;99.90;;;;;;5093814;28;20031;-69
2022/11/20 12:02:01;;;;;;;31.83;16.10;;;3.70;99.90;;;;;;5093917;28;20120;-70
2022/11/20 12:04:50;;;;;;;39.55;19.10;;;3.70;99.90;;;;;;5095043;28;20053;-68
2022/11/20 12:07:26;;;;;;;34.95;17.95;;;3.70;99.90;;;;;;5087679;28;20040;-69
2022/11/20 12:09:55;;;;;;;39.58;17.30;;;3.70;99.90;;;;;;5080751;28;20364;-69
2022/11/20 12:12:29;;;;;;;35.42;16.67;;;3.80;99.90;;;;;;5091080;28;20041;-69
2022/11/20 12:14:56;;;;;;;41.67;19.58;;;3.80;99.90;;;;;;5095404;28;20032;-70
2022/11/20 12:17:22;;;;;;;39.22;19.05;;;3.80;99.90;;;;;;5092019;28;20051;-70
2022/11/20 12:19:48;;;;;;;33.65;17.20;;;3.80;99.90;;;;;;5086688;28;20413;-70
2022/11/20 12:22:39;;;;;;;40.67;20.17;;;3.90;99.90;;;;;;5087208;28;20078;-70
2022/11/20 12:25:17;;;;;;;39.75;19.38;;;3.90;99.90;;;;;;5091157;28;20021;-70
2022/11/20 12:28:21;;;;;;;34.42;16.38;;;3.90;99.90;;;;;;5094994;28;20455;-70
2022/11/20 12:31:19;;;;;;;37.55;18.88;;;3.90;99.90;;;;;;5093901;28;20032;-71
2022/11/20 12:34:10;;;;;;;37.58;18.27;;;3.80;99.90;;;;;;5074715;28;20020;-71
2022/11/20 12:36:48;;;;;;;41.58;19.08;;;3.80;99.90;;;;;;5080000;28;20012;-70
2022/11/20 12:39:42;;;;;;;43.97;19.55;;;3.80;99.90;;;;;;5090992;28;20046;-72
2022/11/20 12:45:42;;;;;;;38.85;18.70;;;3.90;99.90;;;;;;5091661;28;20018;-71
2022/11/20 12:48:17;;;;;;;44.90;20.00;;;3.90;99.90;;;;;;5090818;28;20016;-70
2022/11/20 12:50:49;;;;;;;39.78;19.67;;;3.90;99.90;;;;;;5083744;28;20043;-72
2022/11/20 12:53:17;;;;;;;43.80;21.38;;;3.90;99.90;;;;;;5083133;28;20487;-70
2022/11/20 12:55:54;;;;;;;43.70;20.40;;;3.90;99.90;;;;;;5084690;28;20024;-71
2022/11/20 12:58:43;;;;;;;42.55;19.63;;;4.00;99.90;;;;;;5082361;28;20025;-71
2022/11/20 13:01:44;;;;;;;40.75;19.15;;;4.00;99.90;;;;;;5092401;28;20028;-71